Time;durP1;ratioP1;P1;durP2;ratioP2;P2;SDS_P1;SDS_P2;PMS_P1;PMS_P2;Temp;Humidity;BMP_temperature;BMP_pressure;BME280_temperature;BME280_humidity;BME280_pressure;Samples;Min_cycle;Max_cycle;Signal;HPM_P1;HPM_P2
2023/07/21 00:01:53;;;;;;;11.45;11.15;;;;;;;-141.02;100.00;41858.94;5135650;27;20624;-59
2023/07/21 00:04:24;;;;;;;11.60;11.25;;;;;;;-141.02;100.00;41868.53;5135645;27;20196;-64
2023/07/21 00:06:51;;;;;;;11.68;11.27;;;;;;;-141.02;100.00;41883.88;5135922;27;20199;-63
2023/07/21 00:09:39;;;;;;;12.75;12.35;;;;;;;-141.02;100.00;41613.28;5135534;27;20685;-62
2023/07/21 00:12:07;;;;;;;13.40;13.00;;;;;;;-141.02;100.00;41488.53;5135418;27;20230;-64
2023/07/21 00:14:34;;;;;;;13.82;13.32;;;;;;;-141.02;100.00;41384.91;5135476;27;20689;-65
2023/07/21 00:17:50;;;;;;;13.18;12.77;;;;;;;-141.02;100.00;41327.34;5135411;27;20200;-59
2023/07/21 00:20:21;;;;;;;13.07;12.68;;;;;;;-141.02;100.00;41331.19;5135351;27;20678;-59
2023/07/21 00:22:48;;;;;;;12.50;12.10;;;;;;;-141.02;100.00;41500.06;5135683;27;20192;-61
2023/07/21 00:25:16;;;;;;;11.38;11.07;;;;;;;-141.02;100.00;41715.00;5135524;27;20196;-58
2023/07/21 00:27:44;;;;;;;11.07;10.77;;;;;;;-141.02;100.00;41962.56;5135222;27;20217;-60
2023/07/21 00:30:12;;;;;;;11.30;11.00;;;;;;;-141.02;100.00;42087.31;5135452;27;20184;-59
2023/07/21 00:32:42;;;;;;;11.32;11.02;;;;;;;-141.02;100.00;41993.28;5135094;27;20220;-64
2023/07/21 00:38:32;;;;;;;11.02;10.73;;;;;;;-141.02;100.00;41780.25;5135147;27;20207;-60
2023/07/21 00:41:00;;;;;;;11.25;10.95;;;;;;;-141.02;100.00;41741.84;5134988;27;20658;-61
2023/07/21 00:43:27;;;;;;;11.50;11.20;;;;;;;-141.02;100.00;41693.88;5134537;27;20224;-64
2023/07/21 00:46:04;;;;;;;12.00;11.60;;;;;;;-141.02;100.00;41632.47;5135147;27;20277;-60
2023/07/21 00:48:31;;;;;;;11.82;11.43;;;;;;;-141.02;100.00;41645.91;5134715;27;20192;-63
2023/07/21 00:50:59;;;;;;;12.55;12.15;;;;;;;-141.02;100.00;41465.50;5134987;27;20280;-63
2023/07/21 00:53:26;;;;;;;12.18;11.77;;;;;;;-141.02;100.00;41500.06;5135090;27;20705;-57
2023/07/21 00:56:45;;;;;;;12.05;11.65;;;;;;;-141.02;100.00;41530.75;5134912;27;20291;-61
2023/07/21 00:59:13;;;;;;;11.50;11.20;;;;;;;-141.02;100.00;41567.22;5134632;27;20204;-62
2023/07/21 01:01:40;;;;;;;10.82;10.52;;;;;;;-141.02;100.00;41868.53;5134124;27;20205;-58
2023/07/21 01:04:30;;;;;;;9.63;9.32;;;;;;;-141.02;100.00;42187.13;5133843;27;20279;-62
2023/07/21 01:07:09;;;;;;;9.90;9.60;;;;;;;-141.02;100.00;42471.19;5134434;27;20232;-65
2023/07/21 01:09:38;;;;;;;10.27;9.98;;;;;;;-141.02;100.00;42492.31;5134337;27;20623;-62
2023/07/21 01:15:28;;;;;;;8.90;8.70;;;;;;;-141.02;100.00;43285.19;5134284;27;20292;-57
2023/07/21 01:17:58;;;;;;;8.40;8.20;;;;;;;-141.02;100.00;43861.25;5134175;27;20192;-57
2023/07/21 01:20:27;;;;;;;8.20;8.00;;;;;;;-141.02;100.00;44254.94;5134171;27;20684;-65
2023/07/21 01:22:58;;;;;;;8.20;8.00;;;;;;;-141.02;100.00;44276.06;5134348;27;20269;-58
2023/07/21 01:25:28;;;;;;;8.48;8.27;;;;;;;-141.02;100.00;43792.09;5134391;27;20181;-64
2023/07/21 01:27:56;;;;;;;8.27;8.07;;;;;;;-141.02;100.00;43868.91;5133804;27;20670;-60
2023/07/21 01:30:23;;;;;;;8.65;8.45;;;;;;;-141.02;100.00;43530.97;5134208;27;20184;-60
2023/07/21 01:32:52;;;;;;;8.90;8.70;;;;;;;-141.02;100.00;43918.84;5133876;27;20224;-57
2023/07/21 01:35:19;;;;;;;8.80;8.60;;;;;;;-141.02;100.00;44205.00;5133807;27;20196;-57
2023/07/21 01:37:49;;;;;;;8.25;8.05;;;;;;;-141.02;100.00;44571.84;5133796;27;20658;-59
2023/07/21 01:40:17;;;;;;;8.35;8.15;;;;;;;-141.02;100.00;44767.75;5134051;27;20254;-60
2023/07/21 01:42:48;;;;;;;8.27;8.07;;;;;;;-141.02;100.00;45146.19;5134050;27;20198;-62
2023/07/21 01:45:48;;;;;;;8.60;8.40;;;;;;;-141.02;100.00;44210.75;5133709;27;20192;-57
2023/07/21 01:48:47;;;;;;;8.95;8.75;;;;;;;-141.02;100.00;43730.66;5133573;27;20647;-57
2023/07/21 01:51:15;;;;;;;9.50;9.20;;;;;;;-141.02;100.00;43469.50;5133840;27;20231;-57
2023/07/21 01:53:48;;;;;;;9.88;9.57;;;;;;;-141.02;100.00;42855.13;5133467;27;20196;-58
2023/07/21 01:56:39;;;;;;;11.30;11.00;;;;;;;-141.02;100.00;41964.47;5132945;27;20191;-62
2023/07/21 01:59:11;;;;;;;12.02;11.63;;;;;;;-141.02;100.00;41895.38;5133819;27;20266;-63
2023/07/21 02:01:39;;;;;;;12.18;11.77;;;;;;;-141.02;100.00;41638.22;5133676;27;20191;-58
2023/07/21 02:04:52;;;;;;;12.07;11.68;;;;;;;-141.02;100.00;41960.66;5133352;27;20199;-64
2023/07/21 02:07:20;;;;;;;10.90;10.60;;;;;;;-141.02;100.00;42475.03;5133643;27;20616;-58
2023/07/21 02:10:30;;;;;;;10.63;10.32;;;;;;;-141.02;100.00;42411.69;5133553;27;20192;-62
2023/07/21 02:13:42;;;;;;;11.20;10.90;;;;;;;-141.02;100.00;42356.03;5133128;27;20263;-61
2023/07/21 02:16:10;;;;;;;11.90;11.50;;;;;;;-141.02;100.00;42461.59;5133455;27;20192;-61
2023/07/21 02:18:56;;;;;;;10.80;10.50;;;;;;;-141.02;100.00;42736.13;5133488;27;20199;-59
2023/07/21 02:21:23;;;;;;;10.30;10.00;;;;;;;-141.02;100.00;42905.06;5133079;27;20313;-60
2023/07/21 02:23:50;;;;;;;9.70;9.40;;;;;;;-141.02;100.00;43233.34;5133403;27;20279;-59
2023/07/21 02:26:17;;;;;;;9.55;9.25;;;;;;;-141.02;100.00;43177.66;5132935;27;20282;-60
2023/07/21 02:28:44;;;;;;;9.60;9.30;;;;;;;-141.02;100.00;43054.78;5133032;27;20223;-57
2023/07/21 02:31:13;;;;;;;9.23;9.02;;;;;;;-141.02;100.00;43047.13;5133221;27;20201;-57
2023/07/21 02:33:39;;;;;;;9.60;9.30;;;;;;;-141.02;100.00;43206.47;5132964;27;20312;-63
2023/07/21 02:36:07;;;;;;;9.50;9.20;;;;;;;-141.02;100.00;43433.03;5133256;27;20284;-64
2023/07/21 02:38:34;;;;;;;9.10;8.90;;;;;;;-141.02;100.00;43655.78;5133195;28;20279;-61
2023/07/21 02:44:22;;;;;;;8.23;8.02;;;;;;;-141.02;100.00;44642.91;5132980;28;20244;-63
2023/07/21 02:46:50;;;;;;;8.02;7.82;;;;;;;-141.02;100.00;45336.38;5132803;28;20192;-63
2023/07/21 02:49:17;;;;;;;7.40;7.20;;;;;;;-141.02;100.00;46085.72;5133129;28;20192;-58
2023/07/21 02:51:44;;;;;;;7.78;7.57;;;;;;;-141.02;100.00;46704.53;5132678;28;20198;-63
2023/07/21 02:54:11;;;;;;;7.40;7.20;;;;;;;-141.02;100.00;47281.16;5133131;28;20199;-61
2023/07/21 02:56:39;;;;;;;7.05;6.85;;;;;;;-141.02;100.00;48011.72;5133007;28;20197;-60
2023/07/21 02:59:06;;;;;;;6.60;6.40;;;;;;;-141.02;100.00;48944.34;5133086;28;20203;-57
2023/07/21 03:02:24;;;;;;;6.40;6.30;;;;;;;-141.02;100.00;50500.59;5132756;27;20222;-61
2023/07/21 03:04:53;;;;;;;6.38;6.28;;;;;;;-141.02;100.00;52059.50;5132949;27;20231;-57
2023/07/21 03:07:21;;;;;;;6.00;5.90;;;;;;;-141.02;100.00;53301.34;5134677;27;20188;-60
2023/07/21 03:10:07;;;;;;;6.03;5.93;;;;;;;-141.02;100.00;54982.91;5136983;27;20275;-62
2023/07/21 03:12:34;;;;;;;6.05;5.95;;;;;;;-141.02;100.00;54786.41;5136676;27;20323;-64
2023/07/21 03:19:08;;;;;;;6.20;6.10;;;;;;;-141.02;100.00;55772.94;5136776;27;20195;-62
2023/07/21 03:24:58;;;;;;;6.68;6.47;;;;;;;-141.02;100.00;58734.28;5136578;27;20222;-62
2023/07/21 03:27:25;;;;;;;5.60;5.50;;;;;;;-141.02;100.00;60462.94;5136421;27;20279;-63
2023/07/21 03:30:09;;;;;;;5.50;5.40;;;;;;;-141.02;100.00;61204.03;5136316;27;20239;-64
2023/07/21 03:32:36;;;;;;;5.53;5.43;;;;;;;-141.02;100.00;61945.31;5136299;27;20702;-58
2023/07/21 03:35:05;;;;;;;6.30;6.20;;;;;;;-141.02;100.00;63428.38;5136605;27;20231;-62
2023/07/21 03:37:34;;;;;;;5.80;5.70;;;;;;;-141.02;100.00;63675.59;5136245;27;20241;-64
2023/07/21 03:40:06;;;;;;;6.05;5.95;;;;;;;-141.02;100.00;63181.16;5136206;27;20620;-60
2023/07/21 03:42:33;;;;;;;6.05;5.95;;;;;;;-141.02;100.00;62686.75;5136464;27;20208;-57
2023/07/21 03:45:01;;;;;;;6.03;5.93;;;;;;;-141.02;100.00;62933.94;5136460;27;20219;-60
2023/07/21 03:47:30;;;;;;;5.80;5.70;;;;;;;-141.02;100.00;62686.75;5135993;27;20205;-61
2023/07/21 03:49:57;;;;;;;6.78;6.57;;;;;;;-141.02;100.00;62933.94;5136365;27;20197;-60
2023/07/21 03:52:24;;;;;;;7.00;6.80;;;;;;;-141.02;100.00;63181.16;5135798;27;20669;-58
2023/07/21 03:54:51;;;;;;;6.10;6.00;;;;;;;-141.02;100.00;64417.41;5135875;27;20232;-57
2023/07/21 03:57:20;;;;;;;6.70;6.50;;;;;;;-141.02;100.00;64417.41;5135905;27;20662;-62
2023/07/21 03:59:47;;;;;;;7.50;7.30;;;;;;;-141.02;100.00;63428.38;5135700;27;20196;-62
2023/07/21 04:02:16;;;;;;;9.25;8.98;;;;;;;-141.02;100.00;59475.03;5135723;27;20287;-57
2023/07/21 04:04:43;;;;;;;9.95;9.65;;;;;;;-141.02;100.00;54524.41;5135659;27;20245;-58
2023/07/21 04:07:11;;;;;;;10.80;10.50;;;;;;;-141.02;100.00;51580.22;5135697;27;20578;-64
2023/07/21 04:09:38;;;;;;;11.60;11.30;;;;;;;-141.02;100.00;49742.59;5135975;27;20261;-61
2023/07/21 04:12:06;;;;;;;12.50;12.10;;;;;;;-141.02;100.00;49269.41;5135703;27;20231;-59
2023/07/21 04:14:34;;;;;;;12.75;12.35;;;;;;;-141.02;100.00;49027.06;5135845;27;20220;-59
2023/07/21 04:17:01;;;;;;;13.18;12.77;;;;;;;-141.02;100.00;48790.50;5135712;27;20200;-61
2023/07/21 04:19:28;;;;;;;14.18;13.68;;;;;;;-141.02;100.00;47707.94;5134375;27;20250;-60
2023/07/21 04:21:55;;;;;;;14.27;13.77;;;;;;;-141.02;100.00;47019.75;5135616;27;20202;-63
2023/07/21 04:24:22;;;;;;;14.82;14.32;;;;;;;-141.02;100.00;46639.19;5135648;27;20275;-65
2023/07/21 04:26:49;;;;;;;14.50;14.00;;;;;;;-141.02;100.00;46546.94;5135561;27;20224;-57
2023/07/21 04:29:16;;;;;;;14.70;14.20;;;;;;;-141.02;100.00;46566.16;5135117;27;20323;-60
2023/07/21 04:31:44;;;;;;;15.30;14.70;;;;;;;-141.02;100.00;46354.75;5135496;27;20197;-62
2023/07/21 04:34:11;;;;;;;15.93;15.32;;;;;;;-141.02;100.00;46447.00;5135365;27;20330;-64
2023/07/21 04:36:38;;;;;;;17.08;16.38;;;;;;;-141.02;100.00;45943.53;5135431;27;20227;-63
2023/07/21 04:39:06;;;;;;;17.95;17.15;;;;;;;-141.02;100.00;46051.13;5135147;27;20659;-64
2023/07/21 04:41:33;;;;;;;17.65;16.85;;;;;;;-141.02;99.74;46039.59;5135245;27;20188;-57
2023/07/21 04:44:00;;;;;;;18.73;17.83;;;;;;;-141.02;97.25;45974.28;5134947;27;20200;-61
2023/07/21 04:46:27;;;;;;;18.55;17.65;;;;;;;-141.02;94.87;45951.22;5135097;27;20249;-61
2023/07/21 04:48:57;;;;;;;18.73;17.83;;;;;;;-141.02;93.97;45997.31;5134824;27;20291;-62
2023/07/21 04:51:24;;;;;;;19.08;18.08;;;;;;;-141.02;90.08;46212.53;5135030;27;20211;-64
2023/07/21 04:53:51;;;;;;;18.85;17.95;;;;;;;-141.02;90.87;46227.91;5134756;27;20264;-63
2023/07/21 04:56:18;;;;;;;18.55;17.65;;;;;;;-141.02;90.29;46277.88;5134648;27;20207;-64
2023/07/21 04:58:45;;;;;;;18.20;17.30;;;;;;;-141.02;89.86;46362.44;5134682;27;20283;-62
2023/07/21 05:01:15;;;;;;;18.10;17.20;;;;;;;-141.02;90.25;46001.16;5134904;27;20188;-62
2023/07/21 05:03:42;;;;;;;18.30;17.40;;;;;;;-141.02;89.94;46070.34;5134572;27;20192;-58
2023/07/21 05:06:11;;;;;;;18.00;17.10;;;;;;;-141.02;90.74;46031.91;5134859;27;20192;-63
2023/07/21 05:08:38;;;;;;;18.40;17.50;;;;;;;-141.02;90.20;46266.34;5134697;27;20241;-58
2023/07/21 05:11:05;;;;;;;18.70;17.80;;;;;;;-141.02;90.32;46372.06;5134410;27;20686;-63
2023/07/21 05:13:32;;;;;;;18.60;17.70;;;;;;;-141.02;87.07;46735.28;5134651;27;20656;-62
2023/07/21 05:16:00;;;;;;;18.58;17.67;;;;;;;-141.02;87.91;46197.19;5134575;27;20275;-60
2023/07/21 05:18:27;;;;;;;18.48;17.58;;;;;;;-141.02;85.93;46327.84;5134558;27;20203;-60
2023/07/21 05:20:54;;;;;;;18.13;17.23;;;;;;;-141.02;85.34;46291.34;5134164;27;20234;-60
2023/07/21 05:23:23;;;;;;;18.60;17.70;;;;;;;-141.02;85.58;45972.34;5134417;27;20220;-58
2023/07/21 05:26:00;;;;;;;19.63;18.52;;;;;;;-141.02;87.40;45814.78;5134117;27;20192;-64
2023/07/21 05:28:27;;;;;;;17.73;16.92;;;;;;;-141.02;89.47;45899.31;5134483;27;20228;-61
2023/07/21 05:30:54;;;;;;;18.20;17.30;;;;;;;-141.02;89.54;45928.16;5133924;27;20196;-59
2023/07/21 05:33:21;;;;;;;18.70;17.80;;;;;;;-141.02;90.92;45755.22;5133817;27;20716;-58
2023/07/21 05:35:48;;;;;;;18.48;17.58;;;;;;;-141.02;90.51;45716.78;5134281;27;20308;-57
2023/07/21 05:38:15;;;;;;;17.60;16.70;;;;;;;-141.02;92.89;45751.38;5134105;27;20199;-59
2023/07/21 05:40:43;;;;;;;17.05;16.25;;;;;;;-141.02;93.57;46147.22;5133795;27;20283;-57
2023/07/21 05:43:11;;;;;;;17.10;16.30;;;;;;;-141.02;92.65;45943.53;5133736;27;20663;-58
2023/07/21 05:45:39;;;;;;;16.92;16.13;;;;;;;-141.02;93.25;45839.75;5133705;27;20195;-59
2023/07/21 05:48:09;;;;;;;17.63;16.83;;;;;;;-141.02;94.65;45889.72;5133980;27;20247;-58
2023/07/21 05:50:37;;;;;;;17.25;16.45;;;;;;;-141.02;94.86;45858.97;5133771;27;20189;-58
2023/07/21 05:53:04;;;;;;;17.40;16.60;;;;;;;-141.02;95.03;45680.28;5133480;27;20227;-57
2023/07/21 05:55:31;;;;;;;17.35;16.55;;;;;;;-141.02;95.68;45812.88;5133431;27;20196;-58
2023/07/21 05:57:59;;;;;;;16.77;15.98;;;;;;;-141.02;96.40;46043.44;5133561;27;20189;-57
2023/07/21 06:00:27;;;;;;;16.45;15.68;;;;;;;-141.02;96.26;46070.34;5133465;27;20658;-60
2023/07/21 06:02:54;;;;;;;16.70;15.90;;;;;;;-141.02;96.50;45995.41;5133345;27;20192;-58
2023/07/21 06:05:21;;;;;;;17.20;16.40;;;;;;;-141.02;96.88;46097.25;5133413;27;20659;-58
2023/07/21 06:07:49;;;;;;;17.10;16.30;;;;;;;-141.02;96.81;46016.53;5133581;27;20278;-58
2023/07/21 06:10:16;;;;;;;17.80;17.00;;;;;;;-141.02;96.42;45943.53;5133247;27;20658;-58
2023/07/21 06:12:43;;;;;;;17.30;16.50;;;;;;;-141.02;95.67;45951.22;5133487;27;20220;-58
2023/07/21 06:15:12;;;;;;;17.70;16.90;;;;;;;-141.02;94.14;46106.84;5133504;27;20279;-59
2023/07/21 06:17:39;;;;;;;17.13;16.33;;;;;;;-141.02;92.26;46047.28;5133189;27;20227;-58
2023/07/21 06:20:08;;;;;;;17.77;16.98;;;;;;;-141.02;92.21;45887.81;5133457;27;20193;-57
2023/07/21 06:22:35;;;;;;;18.58;17.67;;;;;;;-141.02;92.19;45632.25;5133174;27;20200;-60
2023/07/21 06:25:03;;;;;;;18.60;17.70;;;;;;;-141.02;90.19;45686.06;5133003;27;20193;-58
2023/07/21 06:27:30;;;;;;;17.92;17.13;;;;;;;-141.02;91.67;45974.28;5133380;27;20192;-63
2023/07/21 06:29:57;;;;;;;17.65;16.85;;;;;;;-141.02;93.07;45970.44;5132923;27;20259;-59
2023/07/21 06:32:25;;;;;;;16.95;16.25;;;;;;;-141.02;94.81;45557.31;5133460;27;20264;-60
2023/07/21 06:34:52;;;;;;;17.20;16.40;;;;;;;-141.02;93.88;45653.38;5133211;27;20220;-64
2023/07/21 06:37:19;;;;;;;16.70;16.00;;;;;;;-141.02;91.29;45774.44;5132943;27;20231;-58
2023/07/21 06:39:48;;;;;;;17.77;16.98;;;;;;;-141.02;90.15;46379.75;5133242;28;20219;-60
2023/07/21 06:42:16;;;;;;;18.90;18.00;;;;;;;-141.02;87.32;46529.63;5132218;27;20198;-62
2023/07/21 06:44:43;;;;;;;18.17;17.27;;;;;;;-141.02;88.15;46623.81;5132876;28;20279;-62
2023/07/21 06:47:11;;;;;;;18.60;17.70;;;;;;;-141.02;87.67;47142.78;5133149;28;20572;-65
2023/07/21 06:49:39;;;;;;;19.73;18.73;;;;;;;-141.02;82.34;46556.53;5132764;28;20661;-59
2023/07/21 06:52:08;;;;;;;19.50;18.50;;;;;;;-141.02;84.36;46746.81;5132857;28;20574;-61
2023/07/21 06:54:36;;;;;;;19.63;18.63;;;;;;;-141.02;83.37;46996.69;5132598;28;20701;-58
2023/07/21 06:57:02;;;;;;;20.25;19.15;;;;;;;-141.02;79.61;46873.66;5132720;28;20199;-60
2023/07/21 06:59:29;;;;;;;20.65;19.55;;;;;;;-141.02;77.58;47123.53;5133001;28;20227;-59
2023/07/21 07:01:58;;;;;;;19.90;18.80;;;;;;;-141.02;76.33;47054.34;5132729;28;20279;-65
2023/07/21 07:04:25;;;;;;;20.05;18.95;;;;;;;-141.02;78.17;47792.53;5132956;28;20279;-60
2023/07/21 07:06:55;;;;;;;20.08;18.98;;;;;;;-141.02;74.78;47698.34;5132876;28;20188;-61
2023/07/21 07:09:23;;;;;;;19.67;18.58;;;;;;;-141.02;73.71;47840.59;5132594;28;20280;-63
2023/07/21 07:11:50;;;;;;;20.58;19.48;;;;;;;-141.02;74.99;48234.75;5132858;27;20218;-64
2023/07/21 07:14:17;;;;;;;21.15;20.05;;;;;;;-141.02;74.04;47538.75;5132504;28;20314;-58
2023/07/21 07:16:44;;;;;;;21.38;20.27;;;;;;;-141.02;74.66;47898.28;5132528;28;20556;-64
2023/07/21 07:19:11;;;;;;;21.13;20.02;;;;;;;-141.02;73.19;47377.28;5132548;28;20197;-62
2023/07/21 07:21:38;;;;;;;21.30;20.20;;;;;;;-141.02;71.84;47377.28;5132799;28;20203;-65
2023/07/21 07:24:06;;;;;;;20.70;19.60;;;;;;;-141.02;75.06;48380.91;5132743;28;20232;-61
2023/07/21 07:26:34;;;;;;;20.58;19.48;;;;;;;-141.02;73.54;47900.19;5132750;28;20279;-59
2023/07/21 07:29:03;;;;;;;21.08;19.98;;;;;;;-141.02;71.49;47969.41;5132299;28;20259;-59
2023/07/21 07:31:30;;;;;;;20.35;19.35;;;;;;;-141.02;73.35;48711.66;5132735;28;20238;-64
2023/07/21 07:33:57;;;;;;;20.27;19.17;;;;;;;-141.02;68.63;47644.50;5132311;28;20315;-62
2023/07/21 07:36:24;;;;;;;21.10;19.90;;;;;;;-141.02;69.63;47877.13;5132592;28;20238;-63
2023/07/21 07:38:51;;;;;;;60.33;56.75;;;;;;;-141.02;67.44;47065.88;5132356;28;20746;-63
2023/07/21 07:41:20;;;;;;;81.43;77.22;;;;;;;-141.02;67.40;46942.88;5132302;28;20288;-64
2023/07/21 07:43:47;;;;;;;37.67;35.58;;;;;;;-141.02;67.01;46560.38;5132292;28;20189;-63
2023/07/21 07:46:17;;;;;;;37.70;35.60;;;;;;;-141.02;65.84;46612.28;5132567;28;20288;-65
2023/07/21 07:48:44;;;;;;;20.40;19.30;;;;;;;-141.02;64.05;46181.81;5132279;28;20621;-62
2023/07/21 07:51:11;;;;;;;20.52;19.42;;;;;;;-141.02;67.02;47010.13;5132560;27;20196;-65
2023/07/21 07:53:38;;;;;;;21.30;20.13;;;;;;;-141.02;66.16;47188.91;5132876;27;20306;-64
2023/07/21 07:56:05;;;;;;;21.30;20.10;;;;;;;-141.02;64.29;47317.69;5136143;27;20200;-64
2023/07/21 07:58:34;;;;;;;21.23;20.02;;;;;;;-141.02;62.10;46854.44;5135842;27;20551;-65
2023/07/21 08:01:01;;;;;;;21.13;20.02;;;;;;;-141.02;62.94;46594.97;5136077;27;20189;-63
2023/07/21 08:03:28;;;;;;;20.95;19.75;;;;;;;-141.02;64.07;46691.06;5135767;27;20221;-64
2023/07/21 08:05:55;;;;;;;21.27;20.08;;;;;;;-141.02;64.85;46823.69;5135642;27;20291;-64
2023/07/21 08:08:22;;;;;;;21.42;20.23;;;;;;;-141.02;64.17;47106.25;5135739;27;20189;-64
2023/07/21 08:10:50;;;;;;;21.42;20.23;;;;;;;-141.02;63.69;47496.47;5135521;27;20192;-65
2023/07/21 08:13:17;;;;;;;21.40;20.20;;;;;;;-141.02;61.38;46977.47;5136365;27;20241;-59
2023/07/21 08:15:46;;;;;;;21.27;20.08;;;;;;;-141.02;60.91;46992.84;5135841;27;20189;-65
2023/07/21 08:18:13;;;;;;;41.70;39.30;;;;;;;-141.02;62.56;47688.72;5135774;27;20199;-65
2023/07/21 08:20:40;;;;;;;21.55;20.35;;;;;;;-141.02;60.79;47584.91;5135803;27;20294;-65
2023/07/21 08:23:08;;;;;;;21.40;20.20;;;;;;;-141.02;62.22;46629.56;5135586;27;20193;-64
2023/07/21 08:25:35;;;;;;;20.15;19.05;;;;;;;-141.02;64.02;47577.22;5136220;27;20207;-65
2023/07/21 08:28:03;;;;;;;21.02;19.83;;;;;;;-141.02;61.80;47715.63;5134997;27;20259;-63
2023/07/21 08:30:30;;;;;;;20.55;19.38;;;;;;;-141.02;59.14;47358.06;5135269;27;20185;-66
2023/07/21 08:32:58;;;;;;;20.83;19.63;;;;;;;-141.02;59.86;47062.03;5135488;27;20224;-65
2023/07/21 08:35:27;;;;;;;21.33;20.13;;;;;;;-141.02;60.94;48204.00;5134923;27;20623;-63
2023/07/21 08:37:55;;;;;;;21.30;20.10;;;;;;;-141.02;59.34;47434.97;5135324;27;20257;-64
2023/07/21 08:40:23;;;;;;;21.17;19.98;;;;;;;-141.02;60.32;47669.50;5135012;27;20292;-62
2023/07/21 08:42:51;;;;;;;21.70;20.40;;;;;;;-141.02;61.60;47688.72;5135295;27;20211;-64
2023/07/21 08:45:20;;;;;;;21.08;19.88;;;;;;;-141.02;60.07;47961.72;5135159;27;20197;-64
2023/07/21 08:47:48;;;;;;;21.50;20.30;;;;;;;-141.02;60.46;48411.66;5135155;27;20285;-66
2023/07/21 08:50:19;;;;;;;21.60;20.35;;;;;;;-141.02;59.02;47852.13;5135208;27;20278;-63
2023/07/21 08:52:47;;;;;;;21.40;20.20;;;;;;;-141.02;59.82;47688.72;5135113;27;20189;-65
2023/07/21 08:55:15;;;;;;;21.63;20.42;;;;;;;-141.02;59.10;47838.69;5134680;27;20622;-66
2023/07/21 08:57:41;;;;;;;21.77;20.48;;;;;;;-141.02;59.54;47477.25;5134917;27;20199;-62
2023/07/21 09:00:11;;;;;;;21.55;20.25;;;;;;;-141.02;59.76;47304.22;5134960;27;20192;-66
2023/07/21 09:02:40;;;;;;;21.80;20.50;;;;;;;-141.02;57.60;47073.56;5135461;27;20199;-66
2023/07/21 09:05:08;;;;;;;21.33;20.08;;;;;;;-141.02;56.94;47038.97;5134040;27;20646;-65
2023/07/21 09:07:40;;;;;;;22.00;20.77;;;;;;;-141.02;55.58;46923.63;5134800;27;20204;-63
2023/07/21 09:10:08;;;;;;;22.17;20.88;;;;;;;-141.02;55.01;46523.88;5134409;27;20189;-65
2023/07/21 09:12:39;;;;;;;22.40;21.00;;;;;;;-141.02;57.52;47492.63;5134395;27;20196;-64
2023/07/21 09:15:09;;;;;;;22.40;21.00;;;;;;;-141.02;58.29;47600.28;5134554;27;20224;-64
2023/07/21 09:17:41;;;;;;;21.80;20.48;;;;;;;-141.02;54.79;46792.94;5134322;27;20192;-65
2023/07/21 09:20:10;;;;;;;22.52;21.13;;;;;;;-141.02;53.57;46389.34;5134497;27;20293;-63
2023/07/21 09:22:40;;;;;;;22.80;21.40;;;;;;;-141.02;51.37;45797.50;5134192;27;20239;-65
2023/07/21 09:25:08;;;;;;;22.85;21.45;;;;;;;-141.02;53.11;46272.13;5134035;27;20199;-64
2023/07/21 09:27:38;;;;;;;22.20;20.90;;;;;;;-141.02;51.09;45482.38;5134139;27;20789;-63
2023/07/21 09:30:06;;;;;;;22.30;21.00;;;;;;;-141.02;52.33;46066.50;5093053;28;20197;-64
2023/07/21 09:32:40;;;;;;;21.73;20.42;;;;;;;-141.02;51.78;45774.44;5093070;28;20284;-59
2023/07/21 09:35:10;;;;;;;22.70;21.30;;;;;;;-141.02;52.91;46024.22;5093342;28;20222;-64
2023/07/21 09:37:39;;;;;;;22.55;21.15;;;;;;;-141.02;52.29;45728.31;5093029;28;20285;-62
2023/07/21 09:40:09;;;;;;;22.60;21.20;;;;;;;-141.02;53.41;46869.81;5092919;28;20254;-66
2023/07/21 09:42:37;;;;;;;26.02;24.42;;;;;;;-141.02;52.35;46616.13;5092900;28;20209;-64
2023/07/21 09:45:05;;;;;;;25.75;24.17;;;;;;;-141.02;52.79;45912.78;5092906;28;20580;-63
2023/07/21 09:47:32;;;;;;;25.63;24.13;;;;;;;-141.02;52.16;46731.44;5093064;28;20213;-62
2023/07/21 09:49:59;;;;;;;22.98;21.58;;;;;;;-141.02;52.28;47115.84;5092741;28;20197;-63
2023/07/21 09:52:28;;;;;;;22.60;21.20;;;;;;;-141.02;51.75;46570.00;5093029;28;20205;-60
2023/07/21 09:55:06;;;;;;;22.15;20.75;;;;;;;-141.02;51.55;47479.16;5092652;28;20261;-64
2023/07/21 09:57:35;;;;;;;23.33;21.83;;;;;;;-141.02;52.65;47925.19;5092947;28;20196;-65
2023/07/21 10:00:07;;;;;;;22.10;20.70;;;;;;;-141.02;52.26;47367.66;5092905;28;20197;-65
2023/07/21 10:02:35;;;;;;;22.45;21.05;;;;;;;-141.02;51.81;47988.63;5092555;28;20190;-63
2023/07/21 10:05:05;;;;;;;22.48;21.08;;;;;;;-141.02;51.95;47285.00;5092883;28;20193;-63
2023/07/21 10:07:33;;;;;;;22.13;20.83;;;;;;;-141.02;52.08;47221.56;5092727;28;20289;-65
2023/07/21 10:10:05;;;;;;;21.90;20.60;;;;;;;-141.02;51.39;47359.97;5092455;28;20244;-64
2023/07/21 10:12:42;;;;;;;22.23;20.83;;;;;;;-141.02;51.15;47567.59;5092507;28;20190;-64
2023/07/21 10:15:15;;;;;;;21.90;20.60;;;;;;;-141.02;50.51;47060.13;5092373;28;20722;-62
2023/07/21 10:17:44;;;;;;;21.85;20.55;;;;;;;-141.02;51.02;47994.41;5091642;28;20182;-63
2023/07/21 10:20:13;;;;;;;21.98;20.58;;;;;;;-141.02;50.62;47832.91;5092319;28;20240;-65
2023/07/21 10:22:56;;;;;;;21.77;20.38;;;;;;;-141.02;49.93;47367.66;5092624;28;20194;-66
2023/07/21 10:25:25;;;;;;;21.25;19.95;;;;;;;-141.02;51.29;47846.38;5092619;28;20194;-62
2023/07/21 10:28:03;;;;;;;21.30;20.00;;;;;;;-141.02;50.53;47675.25;5095976;27;20221;-59
2023/07/21 10:30:30;;;;;;;20.73;19.52;;;;;;;-141.02;49.75;47029.34;5133050;27;20184;-63
2023/07/21 10:33:12;;;;;;;21.08;19.77;;;;;;;-141.02;50.03;46685.31;5133010;27;20624;-61
2023/07/21 10:35:40;;;;;;;20.50;19.30;;;;;;;-141.02;50.78;46258.66;5133261;27;20212;-61
2023/07/21 10:38:28;;;;;;;20.92;19.63;;;;;;;-141.02;52.13;46635.34;5133209;27;20188;-65
2023/07/21 10:40:57;;;;;;;21.33;20.13;;;;;;;-141.02;51.70;45858.97;5129909;27;20674;-62
2023/07/21 10:43:24;;;;;;;21.35;20.05;;;;;;;-141.02;52.53;46539.25;5132868;28;20196;-59
2023/07/21 10:45:53;;;;;;;21.00;19.70;;;;;;;-141.02;51.35;46973.63;5133220;28;20196;-60
2023/07/21 10:48:22;;;;;;;20.77;19.52;;;;;;;-141.02;51.42;47361.91;5132731;28;20197;-64
2023/07/21 10:50:51;;;;;;;21.10;19.80;;;;;;;-141.02;50.54;47377.28;5132795;28;20200;-66
2023/07/21 10:53:19;;;;;;;20.90;19.60;;;;;;;-141.02;50.08;47327.31;5132803;28;20188;-62
2023/07/21 10:55:46;;;;;;;21.17;19.98;;;;;;;-141.02;50.68;47796.38;5132643;28;20231;-61
2023/07/21 10:58:16;;;;;;;20.48;19.27;;;;;;;-141.02;50.20;46992.84;5132767;28;20199;-64
2023/07/21 11:00:47;;;;;;;21.33;20.02;;;;;;;-141.02;51.28;47569.53;5132973;27;20192;-63
2023/07/21 11:03:14;;;;;;;21.42;20.13;;;;;;;-141.02;50.34;47100.47;5132674;28;20753;-62
2023/07/21 11:05:42;;;;;;;21.48;20.17;;;;;;;-141.02;50.88;46373.97;5132967;28;20199;-64
2023/07/21 11:08:12;;;;;;;21.48;20.17;;;;;;;-141.02;50.38;46616.13;5132932;28;20199;-58
2023/07/21 11:10:39;;;;;;;21.48;20.17;;;;;;;-141.02;51.46;46842.91;5132614;27;20624;-62
2023/07/21 11:13:07;;;;;;;21.45;20.25;;;;;;;-141.02;51.63;46541.16;5132951;28;20232;-59
2023/07/21 11:15:36;;;;;;;21.13;19.92;;;;;;;-141.02;51.16;46454.69;5132905;27;20246;-67
2023/07/21 11:18:04;;;;;;;20.98;19.77;;;;;;;-141.02;51.75;46373.97;5132517;28;20654;-58
2023/07/21 11:20:31;;;;;;;21.25;20.02;;;;;;;-141.02;52.73;46393.19;5132886;28;20275;-65
2023/07/21 11:22:59;;;;;;;21.30;20.10;;;;;;;-141.02;52.82;46589.22;5132451;28;20773;-57
2023/07/21 11:25:26;;;;;;;21.50;20.20;;;;;;;-141.02;51.37;46370.13;5132497;28;20254;-58
2023/07/21 11:27:54;;;;;;;21.58;20.27;;;;;;;-141.02;51.15;46831.38;5133476;27;20196;-59
2023/07/21 11:30:21;;;;;;;21.42;20.13;;;;;;;-141.02;50.28;47402.28;5136441;27;20227;-59
2023/07/21 11:33:08;;;;;;;20.98;19.67;;;;;;;-141.02;50.40;46896.72;5136604;27;20192;-63